createdAt,value
2023-04-18T00:04:42.974Z,99645.64
2023-04-18T00:07:47.269Z,99645.73
2023-04-18T00:10:50.491Z,99643.94
2023-04-18T00:13:54.561Z,99640.42
2023-04-18T00:16:57.871Z,99644.11
2023-04-18T00:20:07.394Z,99642.64
2023-04-18T00:23:14.300Z,99645.48
2023-04-18T00:26:17.679Z,99643.44
2023-04-18T00:29:21.481Z,99643.52
2023-04-18T00:32:24.707Z,99644.80
2023-04-18T00:35:28.061Z,99642.02
2023-04-18T00:38:31.374Z,99643.05
2023-04-18T00:41:34.778Z,99642.80
2023-04-18T00:44:38.887Z,99644.83
2023-04-18T00:47:42.328Z,99639.93
2023-04-18T00:50:47.450Z,99637.09
2023-04-18T00:53:51.666Z,99634.29
2023-04-18T00:56:55.156Z,99631.92
2023-04-18T01:00:01.459Z,99632.12
2023-04-18T01:03:08.629Z,99629.25
2023-04-18T01:06:12.508Z,99625.42
2023-04-18T01:09:16.439Z,99625.48
2023-04-18T01:12:23.610Z,99626.25
2023-04-18T01:15:27.230Z,99624.24
2023-04-18T01:18:32.777Z,99627.67
2023-04-18T01:21:44.081Z,99627.70
2023-04-18T01:24:49.391Z,99629.77
2023-04-18T01:27:54.588Z,99628.34
2023-04-18T01:31:00.106Z,99625.82
2023-04-18T01:34:05.243Z,99626.14
2023-04-18T01:37:08.730Z,99623.79
2023-04-18T01:40:12.546Z,99625.29
2023-04-18T01:43:17.163Z,99624.73
2023-04-18T01:46:20.834Z,99624.40
2023-04-18T01:49:24.184Z,99623.16
2023-04-18T01:52:28.095Z,99625.34
2023-04-18T01:55:31.390Z,99624.64
2023-04-18T01:58:36.820Z,99624.17
2023-04-18T02:04:42.086Z,99617.03
2023-04-18T02:07:47.840Z,99617.86
2023-04-18T02:10:51.338Z,99614.54
2023-04-18T02:13:54.956Z,99608.71
2023-04-18T02:16:59.570Z,99610.55
2023-04-18T02:20:02.979Z,99607.26
2023-04-18T02:23:07.997Z,99611.90
2023-04-18T02:26:11.326Z,99616.60
2023-04-18T02:29:14.713Z,99618.36
2023-04-18T02:32:18.036Z,99618.62
2023-04-18T02:35:23.158Z,99620.33
2023-04-18T02:38:28.596Z,99619.75
2023-04-18T02:41:35.134Z,99616.15
2023-04-18T02:44:38.336Z,99617.63
2023-04-18T02:47:53.815Z,99616.35
2023-04-18T02:51:07.925Z,99615.25
2023-04-18T02:54:12.745Z,99615.65
2023-04-18T02:57:26.986Z,99618.33
2023-04-18T03:00:36.530Z,99616.38
2023-04-18T03:03:59.482Z,99611.01
2023-04-18T03:07:10.075Z,99606.30
2023-04-18T03:10:15.679Z,99605.88
2023-04-18T03:13:19.114Z,99606.45
2023-04-18T03:16:23.169Z,99607.13
2023-04-18T03:19:27.225Z,99604.55
2023-04-18T03:22:31.238Z,99607.88
2023-04-18T03:25:35.789Z,99613.04
2023-04-18T03:28:40.319Z,99610.66
2023-04-18T03:31:44.254Z,99611.91
2023-04-18T03:34:47.707Z,99610.87
2023-04-18T03:37:51.218Z,99615.77
2023-04-18T03:41:01.059Z,99613.73
2023-04-18T03:44:09.476Z,99617.22
2023-04-18T03:47:15.023Z,99614.45
2023-04-18T03:50:19.762Z,99618.74
2023-04-18T03:53:24.592Z,99617.42
2023-04-18T03:56:27.887Z,99618.51
2023-04-18T03:59:33.442Z,99623.67
2023-04-18T04:05:03.203Z,99627.14
2023-04-18T04:08:06.372Z,99623.17
2023-04-18T04:11:09.236Z,99623.38
2023-04-18T04:14:12.148Z,99625.06
2023-04-18T04:17:17.919Z,99623.05
2023-04-18T04:20:24.368Z,99624.30
2023-04-18T04:23:33.738Z,99620.11
2023-04-18T04:26:36.495Z,99619.91
2023-04-18T04:29:44.187Z,99625.08
2023-04-18T04:32:47.948Z,99625.29
2023-04-18T04:35:52.009Z,99624.21
2023-04-18T04:38:55.098Z,99622.88
2023-04-18T04:42:05.058Z,99621.45
2023-04-18T04:45:14.854Z,99624.56
2023-04-18T04:48:18.399Z,99623.86
2023-04-18T04:51:20.569Z,99625.52
2023-04-18T04:54:24.321Z,99631.96
2023-04-18T04:57:26.837Z,99630.58
2023-04-18T05:00:29.048Z,99634.98
2023-04-18T05:03:32.771Z,99638.44
2023-04-18T05:06:35.005Z,99635.80
2023-04-18T05:09:36.974Z,99630.33
2023-04-18T05:12:39.048Z,99640.57
2023-04-18T05:15:43.487Z,99639.99
2023-04-18T05:18:45.962Z,99646.56
2023-04-18T05:21:48.119Z,99646.66
2023-04-18T05:24:50.290Z,99647.40
2023-04-18T05:27:52.542Z,99643.31
2023-04-18T05:31:00.692Z,99643.02
2023-04-18T05:34:02.837Z,99642.59
2023-04-18T05:37:04.912Z,99641.41
2023-04-18T05:40:08.570Z,99646.78
2023-04-18T05:43:11.823Z,99646.90
2023-04-18T05:46:13.898Z,99646.77
2023-04-18T05:49:15.982Z,99641.84
2023-04-18T05:52:17.911Z,99643.90
2023-04-18T05:55:20.187Z,99644.09
2023-04-18T05:58:24.170Z,99645.85
2023-04-18T06:04:44.282Z,99645.58
2023-04-18T06:07:49.160Z,99646.16
2023-04-18T06:10:52.547Z,99639.48
2023-04-18T06:13:56.380Z,99637.98
2023-04-18T06:17:00.139Z,99640.21
2023-04-18T06:20:06.469Z,99641.86
2023-04-18T06:23:10.251Z,99640.79
2023-04-18T06:26:14.130Z,99641.73
2023-04-18T06:29:18.304Z,99643.23
2023-04-18T06:32:21.422Z,99644.45
2023-04-18T06:35:26.549Z,99644.00
2023-04-18T06:38:29.952Z,99640.90
2023-04-18T06:41:33.063Z,99639.98
2023-04-18T06:44:36.779Z,99640.72
2023-04-18T06:47:40.918Z,99643.30
2023-04-18T06:50:44.911Z,99637.16
2023-04-18T06:53:48.697Z,99641.64
2023-04-18T06:56:53.121Z,99641.36
2023-04-18T07:03:50.299Z,99645.83
2023-04-18T07:06:54.051Z,99646.13
2023-04-18T07:09:57.462Z,99646.52
2023-04-18T07:13:00.843Z,99645.66
2023-04-18T07:16:04.506Z,99645.83
2023-04-18T07:19:08.664Z,99642.73
2023-04-18T07:22:12.067Z,99641.65
2023-04-18T07:25:15.610Z,99643.69
2023-04-18T07:28:19.095Z,99642.98
2023-04-18T07:31:23.212Z,99642.84
2023-04-18T07:34:29.993Z,99642.08
2023-04-18T07:37:33.869Z,99646.88
2023-04-18T07:40:37.164Z,99638.38
2023-04-18T07:43:40.876Z,99637.38
2023-04-18T07:46:44.189Z,99637.55
2023-04-18T07:49:48.898Z,99639.44
2023-04-18T07:52:52.173Z,99637.57
2023-04-18T07:55:56.010Z,99644.16
2023-04-18T07:58:59.896Z,99642.15
2023-04-18T08:02:03.523Z,99640.88
2023-04-18T08:05:07.801Z,99640.54
2023-04-18T08:08:12.377Z,99635.61
2023-04-18T08:11:15.565Z,99635.05
2023-04-18T08:14:18.868Z,99626.21
2023-04-18T08:17:23.695Z,99622.16
2023-04-18T08:20:27.503Z,99622.31
2023-04-18T08:23:30.947Z,99619.36
2023-04-18T08:26:34.232Z,99622.00
2023-04-18T08:29:37.913Z,99624.06
2023-04-18T08:32:41.357Z,99621.52
2023-04-18T08:35:44.826Z,99624.08
2023-04-18T08:38:48.148Z,99621.83
2023-04-18T08:41:57.548Z,99617.03
2023-04-18T08:45:01.052Z,99619.04
2023-04-18T08:48:04.838Z,99614.38
2023-04-18T08:51:08.197Z,99610.86
2023-04-18T08:54:12.490Z,99608.48
2023-04-18T08:57:17.082Z,99609.44
2023-04-18T09:00:20.840Z,99605.27
2023-04-18T09:03:40.806Z,99602.98
2023-04-18T09:06:53.141Z,99600.85
2023-04-18T09:09:57.522Z,99595.97
2023-04-18T09:13:03.946Z,99594.66
2023-04-18T09:16:08.160Z,99592.22
2023-04-18T09:19:18.151Z,99588.61
2023-04-18T09:22:22.057Z,99585.98
2023-04-18T09:25:45.443Z,99588.25
2023-04-18T09:28:53.958Z,99589.66
2023-04-18T09:32:02.703Z,99594.33
2023-04-18T09:35:06.410Z,99588.22
2023-04-18T09:38:10.826Z,99588.23
2023-04-18T09:41:20.078Z,99589.66
2023-04-18T09:44:24.806Z,99584.17
2023-04-18T09:47:28.764Z,99591.39
2023-04-18T09:50:33.331Z,99585.98
2023-04-18T09:53:42.351Z,99589.33
2023-04-18T09:56:46.773Z,99582.98
2023-04-18T09:59:59.915Z,99582.77
2023-04-18T10:04:47.478Z,99577.15
2023-04-18T10:07:51.693Z,99579.36
2023-04-18T10:10:56.795Z,99575.84
2023-04-18T10:14:04.606Z,99572.88
2023-04-18T10:17:10.175Z,99571.48
2023-04-18T10:20:20.504Z,99565.91
2023-04-18T10:23:35.831Z,99568.11
2023-04-18T10:26:50.507Z,99565.84
2023-04-18T10:29:56.426Z,99563.06
2023-04-18T10:33:29.958Z,99563.04
2023-04-18T10:36:36.416Z,99559.96
2023-04-18T10:40:00.645Z,99562.10
2023-04-18T10:43:07.164Z,99559.40
2023-04-18T10:46:23.804Z,99560.30
2023-04-18T10:49:34.055Z,99563.64
2023-04-18T10:52:38.877Z,99568.53
2023-04-18T10:55:53.533Z,99568.42
2023-04-18T10:59:02.155Z,99573.87
2023-04-18T11:02:32.722Z,99571.70
2023-04-18T11:05:36.195Z,99575.23
2023-04-18T11:08:40.100Z,99572.74
2023-04-18T11:11:44.462Z,99574.52
2023-04-18T11:14:50.078Z,99578.25
2023-04-18T11:18:04.710Z,99580.73
2023-04-18T11:21:08.181Z,99578.71
2023-04-18T11:24:11.672Z,99580.20
2023-04-18T11:27:16.301Z,99584.58
2023-04-18T11:30:19.596Z,99586.63
2023-04-18T11:33:27.741Z,99590.02
2023-04-18T11:36:32.917Z,99588.84
2023-04-18T11:39:43.291Z,99589.66
2023-04-18T11:42:47.705Z,99582.52
2023-04-18T11:45:59.782Z,99588.46
2023-04-18T11:49:03.317Z,99586.67
2023-04-18T11:52:13.667Z,99583.33
2023-04-18T11:55:21.509Z,99582.70
2023-04-18T11:58:32.050Z,99582.06
2023-04-18T12:01:35.352Z,99580.43
2023-04-18T12:05:00.160Z,99578.28
2023-04-18T12:08:07.327Z,99581.59
2023-04-18T12:11:19.750Z,99578.16
2023-04-18T12:14:23.268Z,99576.70
2023-04-18T12:17:27.825Z,99578.40
2023-04-18T12:20:48.691Z,99581.50
2023-04-18T12:23:52.013Z,99579.79
2023-04-18T12:26:58.966Z,99576.58
2023-04-18T12:30:02.362Z,99574.04
2023-04-18T12:33:06.984Z,99573.30
2023-04-18T12:36:11.322Z,99562.84
2023-04-18T12:39:14.599Z,99557.52
2023-04-18T12:42:18.216Z,99556.33
2023-04-18T12:45:22.997Z,99558.36
2023-04-18T13:02:15.779Z,99555.47
2023-04-18T13:05:21.652Z,99557.38
2023-04-18T13:08:23.631Z,99556.18
2023-04-18T13:11:28.125Z,99558.45
2023-04-18T13:14:30.126Z,99558.21
2023-04-18T13:17:33.342Z,99556.79
2023-04-18T13:20:36.122Z,99550.79
2023-04-18T13:23:38.357Z,99548.23
2023-04-18T13:26:40.321Z,99546.55
2023-04-18T13:29:43.408Z,99543.91
2023-04-18T13:32:45.829Z,99541.54
2023-04-18T13:35:48.049Z,99542.99
2023-04-18T13:38:51.321Z,99545.52
2023-04-18T13:55:41.955Z,99525.77
2023-04-18T13:58:44.028Z,99527.46
2023-04-18T14:04:42.194Z,99520.89
2023-04-18T14:07:45.804Z,99523.66
2023-04-18T14:10:49.104Z,99518.14
2023-04-18T14:13:53.941Z,99513.11
2023-04-18T14:16:57.551Z,99512.44
2023-04-18T14:20:01.680Z,99514.85
2023-04-18T14:23:04.956Z,99510.55
2023-04-18T14:26:08.977Z,99506.14
2023-04-18T14:29:14.623Z,99506.25
2023-04-18T14:32:19.373Z,99504.93
2023-04-18T14:35:22.570Z,99506.35
2023-04-18T14:38:26.560Z,99503.33
2023-04-18T14:41:29.779Z,99496.27
2023-04-18T14:44:33.562Z,99494.61
2023-04-18T14:47:39.263Z,99493.78
2023-04-18T14:50:43.929Z,99489.25
2023-04-18T14:53:47.159Z,99489.02
2023-04-18T14:56:51.580Z,99492.23
2023-04-18T14:59:55.267Z,99494.75
2023-04-18T15:03:01.259Z,99500.13
2023-04-18T15:06:04.962Z,99493.75
2023-04-18T15:09:09.273Z,99491.58
2023-04-18T15:12:12.564Z,99494.70
2023-04-18T15:15:16.375Z,99490.75
2023-04-18T15:18:20.068Z,99483.27
2023-04-18T15:21:23.466Z,99482.56
2023-04-18T15:24:26.966Z,99477.69
2023-04-18T15:27:30.598Z,99472.59
2023-04-18T15:30:34.178Z,99468.08
2023-04-18T15:33:37.476Z,99467.55
2023-04-18T15:36:41.697Z,99465.95
2023-04-18T15:39:45.093Z,99471.91
2023-04-18T15:42:49.824Z,99466.79
2023-04-18T15:45:53.159Z,99463.11
2023-04-18T15:48:56.837Z,99462.93
2023-04-18T15:52:00.537Z,99458.04
2023-04-18T15:55:05.444Z,99456.13
2023-04-18T15:58:08.920Z,99453.16
2023-04-18T16:01:16.131Z,99455.38
2023-04-18T16:04:19.460Z,99454.36
2023-04-18T16:07:23.468Z,99453.02
2023-04-18T16:10:26.806Z,99453.89
2023-04-18T16:13:31.092Z,99452.08
2023-04-18T16:16:34.922Z,99451.83
2023-04-18T16:19:41.264Z,99449.04
2023-04-18T16:22:47.102Z,99450.05
2023-04-18T16:25:51.441Z,99448.30
2023-04-18T16:28:54.950Z,99447.77
2023-04-18T16:31:58.458Z,99448.69
2023-04-18T16:35:02.305Z,99447.90
2023-04-18T16:38:06.376Z,99448.01
2023-04-18T16:41:09.703Z,99445.43
2023-04-18T16:44:13.402Z,99442.30
2023-04-18T16:47:17.728Z,99444.11
2023-04-18T16:50:22.837Z,99444.11
2023-04-18T16:53:26.349Z,99444.57
2023-04-18T16:56:30.090Z,99442.45
2023-04-18T16:59:33.455Z,99441.77
2023-04-18T17:02:39.779Z,99437.71
2023-04-18T17:05:44.776Z,99435.23
2023-04-18T17:08:49.207Z,99435.44
2023-04-18T17:11:52.514Z,99435.20
2023-04-18T17:14:55.890Z,99433.81
2023-04-18T17:18:01.526Z,99434.56
2023-04-18T17:21:05.259Z,99435.90
2023-04-18T17:24:09.331Z,99435.14
2023-04-18T17:40:42.851Z,99423.10
2023-04-18T17:43:47.200Z,99422.30
2023-04-18T17:46:50.714Z,99424.26
2023-04-18T17:49:54.943Z,99420.27
2023-04-18T17:52:58.249Z,99417.79
2023-04-18T17:56:02.160Z,99415.02
2023-04-18T17:59:07.587Z,99412.84
2023-04-18T18:04:42.421Z,99406.06
2023-04-18T18:07:48.745Z,99402.33
2023-04-18T18:10:53.535Z,99400.95
2023-04-18T18:13:57.638Z,99402.87
2023-04-18T18:17:01.156Z,99395.41
2023-04-18T18:20:10.628Z,99389.91
2023-04-18T18:23:14.242Z,99387.92
2023-04-18T18:26:17.569Z,99387.89
2023-04-18T18:29:21.345Z,99385.21
2023-04-18T18:32:24.879Z,99383.06
2023-04-18T18:35:28.271Z,99378.81
2023-04-18T18:38:31.653Z,99378.23
2023-04-18T18:41:35.051Z,99371.10
2023-04-18T18:44:38.569Z,99370.52
2023-04-18T18:47:42.030Z,99364.25
2023-04-18T18:50:45.578Z,99361.72
2023-04-18T18:53:50.928Z,99358.03
2023-04-18T18:56:54.310Z,99355.71
2023-04-18T18:59:57.988Z,99352.56
2023-04-18T19:03:01.822Z,99354.31
2023-04-18T19:06:07.425Z,99350.33
2023-04-18T19:09:12.041Z,99347.63
2023-04-18T19:12:16.125Z,99343.67
2023-04-18T19:15:19.933Z,99342.26
2023-04-18T19:18:23.725Z,99340.52
2023-04-18T19:21:27.630Z,99338.79
2023-04-18T19:24:32.257Z,99337.11
2023-04-18T19:27:36.185Z,99335.00
2023-04-18T19:30:41.673Z,99333.85
2023-04-18T19:33:45.021Z,99328.66
2023-04-18T19:36:50.206Z,99327.48
2023-04-18T19:39:54.378Z,99324.78
2023-04-18T19:42:58.561Z,99319.73
2023-04-18T19:46:02.325Z,99319.79
2023-04-18T19:49:06.486Z,99317.10
2023-04-18T19:52:11.460Z,99317.13
2023-04-18T19:55:15.095Z,99314.36
2023-04-18T19:58:40.005Z,99313.88
2023-04-18T20:01:45.518Z,99307.19
2023-04-18T20:04:49.923Z,99308.38
2023-04-18T20:07:53.591Z,99301.86
2023-04-18T20:10:57.051Z,99302.98
2023-04-18T20:14:01.115Z,99300.15
2023-04-18T20:17:04.768Z,99302.45
2023-04-18T20:20:09.483Z,99298.19
2023-04-18T20:23:14.669Z,99298.89
2023-04-18T20:26:18.129Z,99297.75
2023-04-18T20:29:21.548Z,99288.80
2023-04-18T20:32:25.304Z,99283.34
2023-04-18T20:35:29.925Z,99282.48
2023-04-18T20:38:33.578Z,99276.64
2023-04-18T20:41:37.291Z,99277.09
2023-04-18T20:57:18.252Z,99255.98
2023-04-18T21:00:20.323Z,99256.55
2023-04-18T21:03:22.480Z,99252.84
2023-04-18T21:06:24.547Z,99252.64
2023-04-18T21:09:26.520Z,99257.94
2023-04-18T21:12:28.891Z,99260.80
2023-04-18T21:15:30.855Z,99259.44
2023-04-18T21:18:34.050Z,99262.95
2023-04-18T21:21:35.992Z,99262.99
2023-04-18T21:24:40.041Z,99262.45
2023-04-18T21:27:42.009Z,99267.73
2023-04-18T21:30:43.904Z,99264.47
2023-04-18T21:33:46.045Z,99259.59
2023-04-18T21:36:48.012Z,99256.59
2023-04-18T21:39:50.295Z,99257.98
2023-04-18T21:42:52.240Z,99257.08
2023-04-18T21:45:54.355Z,99256.38
2023-04-18T21:48:56.473Z,99251.51
2023-04-18T21:51:58.555Z,99244.86
2023-04-18T21:55:00.605Z,99243.66
2023-04-18T21:58:02.576Z,99240.22
2023-04-18T22:04:45.417Z,99229.00
2023-04-18T22:07:57.584Z,99227.23
2023-04-18T22:11:01.707Z,99225.17
2023-04-18T22:14:05.342Z,99227.24
2023-04-18T22:17:09.564Z,99220.60
2023-04-18T22:20:13.180Z,99219.19
2023-04-18T22:23:16.658Z,99215.08
2023-04-18T22:26:20.813Z,99214.29
2023-04-18T22:29:24.093Z,99214.42
2023-04-18T22:32:27.446Z,99210.31
2023-04-18T22:35:31.088Z,99205.02
2023-04-18T22:38:34.386Z,99201.29
2023-04-18T22:41:38.210Z,99194.84
2023-04-18T22:44:41.597Z,99190.90
2023-04-18T22:47:45.143Z,99187.52
2023-04-18T22:50:50.125Z,99184.75
2023-04-18T22:53:53.337Z,99182.15
2023-04-18T22:56:57.079Z,99178.80
2023-04-18T23:00:01.573Z,99175.09
2023-04-18T23:03:05.776Z,99176.54
2023-04-18T23:06:09.305Z,99172.65
2023-04-18T23:09:13.016Z,99168.36
2023-04-18T23:12:16.607Z,99169.79
2023-04-18T23:15:23.091Z,99169.05
2023-04-18T23:18:30.189Z,99169.71
2023-04-18T23:21:34.183Z,99166.34
2023-04-18T23:24:37.566Z,99156.02
2023-04-18T23:27:42.325Z,99152.80
2023-04-18T23:30:45.709Z,99147.59
2023-04-18T23:33:49.322Z,99146.45
2023-04-18T23:36:52.644Z,99137.26
2023-04-18T23:39:56.008Z,99137.54
2023-04-18T23:42:59.308Z,99134.24
2023-04-18T23:46:02.972Z,99131.40
2023-04-18T23:49:06.623Z,99132.32
2023-04-18T23:52:11.021Z,99133.48
2023-04-18T23:55:14.330Z,99131.45
2023-04-18T23:58:17.967Z,99129.37
